AirNav   ProFlight Series 2 Aviation Headset
 
 1012 users online  

17MI Grace Hospital Heliport
Detroit, Michigan, USA

GOING TO DETROIT?


FAA INFORMATION EFFECTIVE 18 JUNE 2020

Location

FAA Identifier: 17MI
Lat/Long: 42-25-05.0100N 083-10-57.4200W
42-25.083500N 083-10.957000W
42.4180583,-83.1826167
(estimated)
Elevation: 662 ft. / 202 m (estimated)
Variation: 06W (1990)
Time zone: UTC -4 (UTC -5 during Standard Time)
Zip code: 48235

Heliport Operations

Heliport use: Private use, MEDICAL USE.
Activation date: 10/1994
Control tower: no
ARTCC: CLEVELAND CENTER
FSS: LANSING FLIGHT SERVICE STATION
Attendance: CONTINUOUS
Wind indicator: lighted
Segmented circle: no
Lights: SS-SR

Heliport Communications

WX AWOS-3 at VLL (7 nm N): 119.475 (248-288-4649)
WX ASOS at DET (8 nm E): PHONE 313-371-9696
WX ASOS at DTW (14 nm SW): 133.675 (734-955-5015)
WX ASOS at PTK (18 nm NW): 125.025 (248-886-8551)
WX ASOS at YIP (19 nm SW): PHONE 734-961-6843
WX AWOS-3 at ONZ (19 nm S): 119.675 (734-692-9686)

Nearby radio navigation aids

VOR radial/distance  VOR name  Freq  Var
DXOr040/14.8DETROIT VOR/DME113.4006W
SVMr091/18.2SALEM VORTAC114.3003W
CRLr032/25.3CARLETON VOR/DME115.7003W

 
NDB name  Hdg/Dist  Freq  Var  ID
GROSSE ILE003/19.141907WRYS .-. -.-- ...
TECUMSEH060/38.823906WTCU - -.-. ..-

Heliport Services

Runway Information

Helipad H1

Dimensions: 25 x 25 ft. / 8 x 8 m
Surface: concrete, in good condition
Runway edge lights: PERI
PERIMETER LIGHTS
Latitude: 42-25.083500N
Longitude: 083-10.957000W
Elevation: 662.0 ft.
Traffic pattern: leftleft

Heliport Ownership and Management from official FAA records

Ownership: Privately-owned
Owner: VHS SINAI-GRACE HOSPITAL
6071 W OUTER DR
DETROIT, MI 48235
Phone (313) 966-1952
Manager: WILLIAM GILBERT
6071 W OUTER DR
DETROIT, MI 48235
Phone (313) 966-1952

Additional Remarks

A52-H1 25 FT LIGHT POLE 126 FT S.
APCH/DEP 360/180
FOR CD CTC DETROIT APCH AT 800-499-8181.

Instrument Procedures

There are no published instrument procedures at 17MI.

Some nearby airports with instrument procedures:

KVLL - Oakland/Troy Airport (7 nm N)
KDET - Coleman A Young Municipal Airport (8 nm E)
1D2 - Canton-Plymouth-Mettetal Airport (13 nm W)
KDTW - Detroit Metropolitan Wayne County Airport (14 nm SW)
KPTK - Oakland County International Airport (18 nm NW)
KYIP - Willow Run Airport (19 nm SW)
KONZ - Grosse Ile Municipal Airport (19 nm S)
KMTC - Selfridge Air National Guard Base (19 nm NE)
 
Loc | Ops | Rwys | IFR | FBO | Links
Com | Nav | Svcs | Stats | Notes
Area around 17MI (Grace Hospital Heliport)
 
Road maps at: MapQuest Bing Google
 
Aerial photo
No photo
 
Sectional chart

 
Airport distance calculator
Flying to Grace Hospital Heliport? Find the distance to fly.

From to 17MI

Sunrise and sunset
Times for 07-Jul-2020
 Local
(UTC-4)
 Zulu
(UTC)
Morning civil twilight05:3009:30
Sunrise06:0510:05
Sunset21:1101:11
Evening civil twilight21:4501:45

Current date and time
Zulu (UTC)  08-Jul-2020 02:12:02
Local (UTC-4)  07-Jul-2020 22:12:02
 
METAR
KDET 
7nm E 
080153Z 16008KT 10SM SCT065 BKN090 25/21 A2995 RMK AO2 LTG DSNT SE-SW SLPNO T02500206
KVLL 
7nm N 
080155Z AUTO 00000KT 10SM SCT120 25/20 A2997 RMK AO2 T02510203
KDTW 
13nm SW 
080153Z 11009KT 10SM SCT030 OVC055 23/19 A2994 RMK AO2 LTG DSNT E-SW RAE29 TSE11 SLP132 OCNL LTGICCG DSNT SE AND SW TS MOV SE CB DSNT SE AND SW MOV SE T02330189 PNO $
CYQG 
13nm SE 
080159Z AUTO 14009KT 9SM -TSRA FEW095 BKN120 BKN150 OVC180 23/21 A2996 RMK LTNG DIST SE S SW RVR MISG SLP142 DENSITY ALT 1600FT
KPTK 
18nm NW 
080153Z 25006KT 10SM FEW090 BKN270 27/19 A2995 RMK AO2 SLP132 T02720189
KYIP 
19nm SW 
080153Z 05005KT 10SM CLR 26/20 A2994 RMK AO2 LTG DSNT SE AND S SLP129 T02610200
KONZ 
19nm S 
080155Z AUTO 10006KT 10SM RA SCT029 SCT046 OVC065 23/22 A2994 RMK AO2 P0006 T02340222
TAF
KDET 
7nm E 
071720Z 0718/0818 27007KT P6SM SCT070 TEMPO 0720/0723 6SM -SHRA BKN070 FM080100 27003KT P6SM FEW070 FM080900 VRB03KT P6SM SCT100 FM081600 VRB05KT P6SM SCT060 BKN100
KDTW 
13nm SW 
080025Z 0800/0906 27007KT P6SM VCTS SCT070CB BKN100 TEMPO 0800/0801 22016G24KT 3SM TSRA SCT060CB BKN100 FM080200 27003KT P6SM FEW070 FM080900 VRB03KT P6SM SCT100 FM081600 VRB05KT P6SM SCT060 BKN100 FM082000 16006KT P6SM SCT060 BKN150 FM090000 12003KT P6SM SCT250
CYQG 
13nm SE 
072307Z 0723/0818 24010KT P6SM SCT070 TEMPO 0723/0801 VRB20G40KT 2SM TSRA BR SCT030 BKN060CB FM080200 05006KT P6SM FEW080 BECMG 0804/0805 VRB03KT FM081700 12007KT P6SM BKN060 RMK FCST BASED ON AUTO OBS. NXT FCST BY 080000Z
KPTK 
18nm NW 
071720Z 0718/0818 27007KT P6SM SCT060 TEMPO 0720/0723 6SM -SHRA BKN060 FM080100 27003KT P6SM FEW070 FM080900 VRB03KT P6SM SCT100 FM081600 VRB05KT P6SM SCT060 BKN100
KYIP 
19nm SW 
071720Z 0718/0818 27007KT P6SM SCT070 TEMPO 0720/0723 6SM -SHRA BKN070 FM080100 27003KT P6SM FEW070 FM080900 VRB03KT P6SM SCT100 FM081600 VRB05KT P6SM SCT060 BKN100
NOTAMs
Click for the latest NOTAMs
NOTAMs are issued by the DoD/FAA and will open in a separate window not controlled by AirNav.

 

 
 

Would you like to see your business listed on this page?

 If your business provides an interesting product or service to pilots, flight crews, aircraft, or users of the Grace Hospital Heliport, you should consider listing it here.  To start the listing process, click on the button below
 
Add a business
 

Other Pages about Grace Hospital Heliport

Update a link
 
Copyright © AirNav, LLC. All rights reserved. Privacy Policy  Contact